Time;durP1;ratioP1;P1;durP2;ratioP2;P2;SDS_P1;SDS_P2;PMS_P1;PMS_P2;Temp;Humidity;BMP_temperature;BMP_pressure;BME280_temperature;BME280_humidity;BME280_pressure;Samples;Min_cycle;Max_cycle;Signal;HPM_P1;HPM_P2
2022/09/28 00:00:07;;;;;;;6.75;5.40;;;;;;;23.63;50.19;93928.31;4960751;28;20058;-67
2022/09/28 00:02:34;;;;;;;8.45;5.68;;;;;;;23.29;49.68;93877.97;4966955;28;20043;-66
2022/09/28 00:05:00;;;;;;;7.90;5.95;;;;;;;23.71;50.00;93939.28;4960722;28;20031;-66
2022/09/28 00:07:25;;;;;;;7.45;6.00;;;;;;;23.63;49.84;93916.66;4974253;28;20038;-65
2022/09/28 00:09:51;;;;;;;6.43;5.65;;;;;;;23.17;49.61;93855.03;4965033;28;20029;-62
2022/09/28 00:12:17;;;;;;;6.93;5.53;;;;;;;23.59;49.64;93927.91;4969489;28;20459;-65
2022/09/28 00:14:43;;;;;;;8.65;5.70;;;;;;;23.51;49.47;93904.59;4966285;28;20156;-68
2022/09/28 00:17:11;;;;;;;8.40;6.45;;;;;;;23.19;49.78;93851.75;4965841;28;20466;-68
2022/09/28 00:19:37;;;;;;;8.20;6.20;;;;;;;23.16;49.90;93852.84;4962087;28;20039;-67
2022/09/28 00:22:03;;;;;;;8.27;6.43;;;;;;;23.52;50.05;93906.06;4975285;28;20026;-64
2022/09/28 00:24:29;;;;;;;8.35;5.90;;;;;;;23.59;49.64;93916.31;4982044;28;20026;-66
2022/09/28 00:26:56;;;;;;;7.95;6.20;;;;;;;23.65;50.10;93919.63;4968160;28;20034;-67
2022/09/28 00:29:21;;;;;;;8.13;6.63;;;;;;;23.66;49.53;93921.06;4972355;28;20047;-67
2022/09/28 00:31:47;;;;;;;7.72;6.10;;;;;;;23.62;50.05;93926.13;4972563;28;20109;-68
2022/09/28 00:34:12;;;;;;;8.75;6.63;;;;;;;23.14;49.53;93845.19;4985201;28;20834;-66
2022/09/28 00:36:38;;;;;;;7.90;6.38;;;;;;;23.61;49.78;93935.56;4984851;28;20046;-67
2022/09/28 00:39:05;;;;;;;8.48;6.78;;;;;;;23.60;50.00;93920.47;4968540;28;20431;-68
2022/09/28 00:41:30;;;;;;;8.38;6.38;;;;;;;23.55;49.59;93926.81;4966223;28;20046;-61
2022/09/28 00:44:24;;;;;;;7.90;6.13;;;;;;;23.60;49.54;93923.19;4974094;28;20097;-63
2022/09/28 00:46:57;;;;;;;7.82;6.40;;;;;;;23.00;49.56;93830.22;4987959;28;20047;-66
2022/09/28 00:49:42;;;;;;;8.52;6.82;;;;;;;23.17;49.48;93871.38;4985148;28;20118;-64
2022/09/28 00:52:08;;;;;;;8.40;6.25;;;;;;;23.16;49.54;93864.44;4972768;28;20026;-67
2022/09/28 00:54:33;;;;;;;8.20;6.28;;;;;;;23.56;49.90;93922.81;4966310;28;20038;-62
2022/09/28 00:56:59;;;;;;;9.15;6.70;;;;;;;23.57;49.59;93924.25;4979714;28;20524;-66
2022/09/28 00:59:25;;;;;;;8.40;6.47;;;;;;;23.57;49.75;93918.81;4967168;28;20444;-67
2022/09/28 01:01:51;;;;;;;7.68;6.70;;;;;;;23.20;49.84;93867.56;4970946;28;20065;-67
2022/09/28 01:04:16;;;;;;;7.63;6.65;;;;;;;23.17;49.92;93876.81;4983679;28;20474;-63
2022/09/28 01:06:42;;;;;;;7.80;6.25;;;;;;;22.81;49.67;93814.63;4970487;28;20535;-67
2022/09/28 01:09:07;;;;;;;8.25;7.03;;;;;;;22.96;49.30;93850.88;4958923;28;20476;-63
2022/09/28 01:11:35;;;;;;;8.55;6.65;;;;;;;23.42;49.55;93902.38;4980626;28;20059;-66
2022/09/28 01:14:01;;;;;;;8.23;6.38;;;;;;;23.22;49.96;93884.09;4947371;28;20122;-64
2022/09/28 01:17:00;;;;;;;9.18;6.93;;;;;;;23.51;49.96;93926.41;4978416;28;20057;-63
2022/09/28 01:20:04;;;;;;;8.43;6.85;;;;;;;23.52;49.62;93923.16;4974825;28;20053;-67
2022/09/28 01:22:33;;;;;;;10.30;7.15;;;;;;;23.51;49.70;93927.16;4975165;28;20621;-63
2022/09/28 01:25:15;;;;;;;8.98;6.75;;;;;;;23.21;50.04;93877.19;4965794;28;20739;-63
2022/09/28 01:28:03;;;;;;;9.43;7.10;;;;;;;23.27;49.84;93891.38;4949039;28;20026;-67
2022/09/28 01:30:28;;;;;;;8.52;6.82;;;;;;;23.50;49.96;93922.25;4968516;28;20215;-66
2022/09/28 01:33:04;;;;;;;9.18;6.75;;;;;;;23.41;49.84;93917.28;4991753;28;20061;-66
2022/09/28 01:35:56;;;;;;;8.93;6.95;;;;;;;23.46;49.64;93935.47;4942240;28;20030;-68
2022/09/28 01:38:26;;;;;;;8.23;6.63;;;;;;;23.46;49.58;93951.81;4982775;28;20057;-67
2022/09/28 01:40:51;;;;;;;9.18;6.72;;;;;;;23.40;49.58;93927.44;4974312;28;20035;-67
2022/09/28 01:43:19;;;;;;;8.88;7.00;;;;;;;23.32;49.81;93906.88;4962601;28;20168;-67
2022/09/28 01:45:51;;;;;;;9.02;7.55;;;;;;;23.33;49.89;93921.22;4936884;28;20064;-67
2022/09/28 01:48:20;;;;;;;8.55;6.75;;;;;;;23.19;49.78;93901.50;4949943;28;20073;-67
2022/09/28 01:50:46;;;;;;;8.57;6.63;;;;;;;23.33;49.62;93904.88;4956770;28;20140;-69
2022/09/28 01:53:24;;;;;;;9.00;6.93;;;;;;;23.44;50.01;93943.47;4947310;28;20496;-67
2022/09/28 01:55:56;;;;;;;8.55;7.05;;;;;;;23.42;49.84;93941.28;4965481;28;20042;-66
2022/09/28 01:58:31;;;;;;;8.93;7.22;;;;;;;23.42;49.87;93945.97;4968904;28;20720;-65
2022/09/28 02:01:00;;;;;;;8.65;7.18;;;;;;;23.42;49.66;93951.41;4965100;28;20026;-65
2022/09/28 02:03:31;;;;;;;9.27;7.05;;;;;;;23.38;49.69;93929.25;4998107;28;20038;-64
2022/09/28 02:06:05;;;;;;;8.70;6.88;;;;;;;23.29;49.57;93932.44;4985104;28;20038;-66
2022/09/28 02:08:36;;;;;;;8.85;7.22;;;;;;;23.34;50.02;93934.28;4949007;28;20069;-66
2022/09/28 02:11:15;;;;;;;8.80;7.20;;;;;;;23.41;49.44;93941.81;4964905;28;20141;-68
2022/09/28 02:13:42;;;;;;;9.40;7.47;;;;;;;23.38;49.71;93951.03;4969878;28;20038;-63
2022/09/28 02:16:33;;;;;;;8.30;7.00;;;;;;;23.41;49.59;93949.97;4965629;28;20294;-68
2022/09/28 02:18:59;;;;;;;8.13;6.90;;;;;;;23.38;49.76;93956.50;4972602;28;20027;-67
2022/09/28 02:21:31;;;;;;;8.85;6.90;;;;;;;23.31;49.91;93938.09;4982643;28;20030;-67
2022/09/28 02:24:06;;;;;;;8.48;7.00;;;;;;;23.20;49.47;93922.03;4950212;28;20185;-66
2022/09/28 02:26:34;;;;;;;9.43;6.97;;;;;;;23.07;49.57;93905.78;4943175;28;20054;-62
2022/09/28 02:29:00;;;;;;;9.02;6.75;;;;;;;23.37;49.50;93949.56;4964296;28;20038;-65
2022/09/28 02:31:26;;;;;;;9.27;6.97;;;;;;;23.25;49.73;93931.34;4969750;28;20052;-66
2022/09/28 02:33:52;;;;;;;9.82;7.40;;;;;;;23.34;49.79;93925.41;4954202;28;20031;-62
2022/09/28 02:36:17;;;;;;;9.07;7.07;;;;;;;23.04;49.30;93887.78;4953977;28;20070;-67
2022/09/28 02:38:43;;;;;;;9.68;7.18;;;;;;;23.33;49.69;93949.19;4962462;28;20050;-67
2022/09/28 02:41:20;;;;;;;8.13;6.28;;;;;;;23.31;49.72;93940.81;4970787;28;20581;-68
2022/09/28 02:44:16;;;;;;;8.85;6.82;;;;;;;23.05;49.63;93902.16;4956582;28;20092;-67
2022/09/28 02:46:47;;;;;;;9.77;7.00;;;;;;;23.37;49.35;93944.13;4960364;28;20034;-67
2022/09/28 02:49:31;;;;;;;8.57;6.63;;;;;;;23.36;49.63;93964.44;4966336;28;20065;-67
2022/09/28 02:52:19;;;;;;;9.05;7.00;;;;;;;22.74;49.53;93853.41;4965290;28;20034;-67
2022/09/28 02:55:12;;;;;;;8.02;6.60;;;;;;;23.36;49.26;93953.56;4970484;28;20347;-66
2022/09/28 02:58:02;;;;;;;8.90;6.97;;;;;;;23.34;49.51;93967.00;4945310;28;20161;-65
2022/09/28 03:00:28;;;;;;;8.75;6.40;;;;;;;23.13;49.37;93925.44;4927709;28;20043;-65
2022/09/28 03:03:11;;;;;;;8.13;6.82;;;;;;;23.36;49.73;93952.84;4949017;28;20141;-65
2022/09/28 03:06:02;;;;;;;8.95;7.22;;;;;;;23.11;49.37;93925.25;4947836;28;20058;-68
2022/09/28 03:08:51;;;;;;;8.70;7.03;;;;;;;23.26;49.94;93955.31;4942043;28;20035;-69
2022/09/28 03:11:24;;;;;;;8.45;6.85;;;;;;;23.10;49.29;93931.94;4924017;28;20061;-67
2022/09/28 03:13:50;;;;;;;7.72;6.50;;;;;;;23.11;49.89;93955.19;4946801;28;20042;-68
2022/09/28 03:16:17;;;;;;;8.88;7.10;;;;;;;23.16;49.20;93951.59;4932820;28;20058;-67
2022/09/28 03:18:43;;;;;;;9.63;6.50;;;;;;;23.25;49.76;93964.75;4953424;28;20042;-69
2022/09/28 03:21:12;;;;;;;9.90;7.53;;;;;;;23.07;49.55;93949.34;4951307;28;20050;-67
2022/09/28 03:23:38;;;;;;;8.98;7.07;;;;;;;23.25;49.27;93972.91;4948770;28;20291;-67
2022/09/28 03:26:04;;;;;;;8.50;6.60;;;;;;;23.31;49.35;93984.41;4948914;28;20054;-67
2022/09/28 03:28:29;;;;;;;7.93;6.55;;;;;;;22.90;49.35;93919.06;4946128;28;20053;-68
2022/09/28 03:30:55;;;;;;;9.00;6.80;;;;;;;23.25;49.30;93975.63;4938415;28;20038;-66
2022/09/28 03:33:21;;;;;;;7.80;6.30;;;;;;;23.30;49.57;93982.94;4951827;28;20158;-66
2022/09/28 03:35:48;;;;;;;8.07;6.40;;;;;;;23.25;49.65;93978.34;4956732;28;20081;-68
2022/09/28 03:38:14;;;;;;;8.45;6.90;;;;;;;23.30;49.39;93991.09;4960952;28;20050;-65
2022/09/28 03:40:39;;;;;;;8.13;6.57;;;;;;;23.29;49.35;93981.50;4986848;28;20116;-68
2022/09/28 03:43:04;;;;;;;9.02;6.95;;;;;;;23.19;49.51;93983.22;4972551;28;20038;-64
2022/09/28 03:45:30;;;;;;;8.20;6.57;;;;;;;23.09;49.70;93957.72;4973747;28;20061;-68
2022/09/28 03:47:55;;;;;;;7.75;6.47;;;;;;;22.91;49.67;93925.97;4959934;28;20097;-66
2022/09/28 03:50:21;;;;;;;8.20;6.60;;;;;;;22.61;49.60;93881.41;4969468;28;20059;-65
2022/09/28 03:52:46;;;;;;;7.60;6.47;;;;;;;23.29;49.72;93976.03;4975210;28;20046;-66
2022/09/28 03:55:12;;;;;;;7.57;6.13;;;;;;;23.28;49.59;93985.47;4960605;28;20061;-65
2022/09/28 03:57:37;;;;;;;8.18;6.82;;;;;;;23.29;49.33;93986.94;4964152;28;20037;-66
2022/09/28 04:00:03;;;;;;;9.15;6.95;;;;;;;23.27;49.66;93989.44;4960731;28;20644;-66
2022/09/28 04:02:29;;;;;;;8.38;6.97;;;;;;;23.29;49.14;93986.19;4968423;28;20041;-68
2022/09/28 04:04:55;;;;;;;8.52;6.68;;;;;;;23.28;49.41;93990.19;4963148;28;20765;-67
2022/09/28 04:07:20;;;;;;;8.75;7.00;;;;;;;23.02;49.21;93947.50;4968755;28;20140;-68
2022/09/28 04:09:46;;;;;;;8.75;6.70;;;;;;;23.26;49.26;93979.84;4964261;28;20721;-66
2022/09/28 04:12:11;;;;;;;7.57;6.25;;;;;;;23.06;49.66;93947.91;4960145;28;20043;-67
2022/09/28 04:14:37;;;;;;;8.23;6.20;;;;;;;23.27;49.27;93984.00;4960134;28;20039;-67
2022/09/28 04:17:03;;;;;;;7.72;6.53;;;;;;;23.09;49.26;93955.00;4966537;28;20047;-66
2022/09/28 04:19:29;;;;;;;8.30;6.63;;;;;;;22.87;49.74;93924.09;4976483;28;20104;-67
2022/09/28 04:21:54;;;;;;;8.63;6.63;;;;;;;22.69;49.46;93903.25;4978722;28;20026;-69
2022/09/28 04:24:20;;;;;;;9.05;6.60;;;;;;;22.73;49.22;93906.38;4991186;28;20637;-67
2022/09/28 04:26:45;;;;;;;7.65;6.10;;;;;;;23.20;49.20;93984.69;4998584;28;20151;-66
2022/09/28 04:29:17;;;;;;;8.25;6.65;;;;;;;22.70;49.54;93902.72;4993884;28;20486;-66
2022/09/28 04:31:50;;;;;;;7.95;6.03;;;;;;;23.24;49.61;93990.50;4980289;28;20552;-68
2022/09/28 04:34:19;;;;;;;7.65;6.20;;;;;;;23.03;49.57;93959.84;4974597;28;20120;-67
2022/09/28 04:36:45;;;;;;;8.00;6.77;;;;;;;23.27;49.59;93994.88;4993718;28;20058;-66
2022/09/28 04:39:14;;;;;;;8.13;6.20;;;;;;;23.27;49.78;93988.72;4994895;28;20034;-65
2022/09/28 04:41:40;;;;;;;8.20;6.37;;;;;;;23.21;49.16;93986.13;4991247;28;20056;-63
2022/09/28 04:44:05;;;;;;;7.85;6.43;;;;;;;23.26;49.73;93988.00;5000725;28;20293;-66
2022/09/28 04:46:31;;;;;;;8.63;6.45;;;;;;;23.27;49.62;93994.88;5000920;28;20045;-62
2022/09/28 04:48:57;;;;;;;8.75;6.75;;;;;;;23.18;49.75;93981.75;4998614;28;20100;-63
2022/09/28 04:51:22;;;;;;;7.72;6.20;;;;;;;22.93;49.07;93939.03;5000433;28;20041;-64
2022/09/28 04:53:48;;;;;;;7.30;5.05;;;;;;;22.56;48.79;93917.66;4981729;28;20594;-61
2022/09/28 04:56:14;;;;;;;7.97;5.38;;;;;;;23.41;47.78;93993.56;4998000;28;20042;-65
2022/09/28 04:58:39;;;;;;;6.30;5.05;;;;;;;23.05;47.84;93930.09;4977347;28;20031;-63
2022/09/28 05:01:07;;;;;;;8.57;5.45;;;;;;;23.11;47.93;93927.97;4992605;28;20029;-63
2022/09/28 05:03:32;;;;;;;9.48;5.13;;;;;;;23.02;48.24;93931.16;4963895;28;20034;-65
2022/09/28 05:05:58;;;;;;;8.45;5.60;;;;;;;23.07;48.00;93941.19;5002814;28;20056;-66
2022/09/28 05:08:25;;;;;;;8.95;5.82;;;;;;;22.77;48.46;93898.63;4986393;28;20058;-63
2022/09/28 05:10:57;;;;;;;7.80;5.80;;;;;;;23.36;48.48;93986.25;4985384;28;20088;-59
2022/09/28 05:13:22;;;;;;;7.55;5.65;;;;;;;23.02;48.74;93942.06;4969009;28;20073;-59
2022/09/28 05:15:51;;;;;;;8.35;5.32;;;;;;;23.48;48.53;93998.31;4999796;28;20026;-60
2022/09/28 05:18:16;;;;;;;8.40;5.28;;;;;;;23.01;47.68;93891.56;4987168;28;20556;-59
2022/09/28 05:20:42;;;;;;;8.05;5.47;;;;;;;23.48;47.87;93941.09;5007047;28;20057;-59
2022/09/28 05:23:11;;;;;;;7.15;5.05;;;;;;;23.93;46.85;93953.78;4992096;28;20031;-58
2022/09/28 05:25:37;;;;;;;7.53;5.45;;;;;;;24.04;46.58;93950.00;4988851;28;20038;-57
2022/09/28 05:28:03;;;;;;;9.95;5.53;;;;;;;24.55;45.70;93992.44;5000514;28;20022;-57
2022/09/28 05:30:28;;;;;;;7.63;5.20;;;;;;;24.70;46.04;93997.94;5002182;28;20395;-60
2022/09/28 05:32:54;;;;;;;8.85;5.90;;;;;;;24.58;45.56;93969.50;5000506;28;20395;-60
2022/09/28 05:35:19;;;;;;;12.82;5.90;;;;;;;24.58;45.68;93958.59;5002163;28;20037;-61
2022/09/28 05:37:45;;;;;;;8.68;5.03;;;;;;;24.28;46.47;93993.22;4999455;28;20076;-58
2022/09/28 05:40:11;;;;;;;8.70;5.50;;;;;;;24.64;45.59;93945.50;4996851;28;20485;-58
2022/09/28 05:42:36;;;;;;;8.40;5.35;;;;;;;25.23;44.70;94000.25;5001814;28;20107;-60
2022/09/28 05:45:02;;;;;;;8.65;5.30;;;;;;;25.22;45.11;94009.00;4983478;28;20045;-58
2022/09/28 05:47:28;;;;;;;7.95;5.40;;;;;;;25.38;44.57;94006.44;4988716;28;20720;-58
2022/09/28 05:49:53;;;;;;;10.88;5.80;;;;;;;25.04;44.98;93956.16;4979578;28;20038;-57
2022/09/28 05:52:19;;;;;;;9.85;5.95;;;;;;;25.01;45.87;93961.97;4985732;28;20041;-63
2022/09/28 05:54:45;;;;;;;9.93;5.68;;;;;;;25.75;44.79;93994.06;5002978;28;20030;-58
2022/09/28 05:57:11;;;;;;;8.85;5.75;;;;;;;25.54;45.02;94007.16;4972139;28;20043;-59
2022/09/28 05:59:36;;;;;;;9.60;6.05;;;;;;;25.69;44.51;93991.50;4980012;28;20042;-58
2022/09/28 06:02:02;;;;;;;9.10;6.25;;;;;;;25.07;45.03;93937.94;4989565;28;20085;-58
2022/09/28 06:04:28;;;;;;;9.55;6.25;;;;;;;25.32;44.65;93932.09;4981756;28;20065;-58
2022/09/28 06:06:53;;;;;;;9.63;6.65;;;;;;;25.59;44.38;93954.28;4981123;28;20088;-60
2022/09/28 06:09:19;;;;;;;8.80;6.28;;;;;;;25.50;44.87;93998.59;4979504;28;20039;-60
2022/09/28 06:11:44;;;;;;;14.98;7.63;;;;;;;25.71;44.63;93977.28;4979820;28;20125;-58
2022/09/28 06:14:12;;;;;;;13.35;7.55;;;;;;;25.76;43.66;93938.81;4983144;28;20038;-60
2022/09/28 06:16:38;;;;;;;10.65;6.85;;;;;;;26.04;44.34;94010.44;4981348;28;20042;-59
2022/09/28 06:19:03;;;;;;;13.75;7.22;;;;;;;24.98;45.75;93955.56;4981615;28;20118;-60
2022/09/28 06:21:29;;;;;;;11.82;6.82;;;;;;;25.36;45.37;93991.84;4979671;28;20065;-59
2022/09/28 06:23:55;;;;;;;10.77;7.18;;;;;;;25.04;46.37;93971.81;4980364;28;20038;-59
2022/09/28 06:26:20;;;;;;;10.70;6.63;;;;;;;24.85;46.83;93980.31;4981490;28;20053;-60
2022/09/28 06:28:46;;;;;;;12.65;7.30;;;;;;;25.32;46.33;94013.38;4982504;28;20422;-60
2022/09/28 06:31:11;;;;;;;12.38;7.63;;;;;;;25.48;45.51;93998.41;4987640;28;20569;-59
2022/09/28 06:33:37;;;;;;;12.18;7.78;;;;;;;25.69;44.24;93963.44;4988585;28;20089;-58
2022/09/28 06:36:03;;;;;;;14.85;8.05;;;;;;;24.91;45.65;93948.09;5000019;28;20038;-61
2022/09/28 06:38:29;;;;;;;12.07;8.30;;;;;;;25.56;45.74;94037.41;4998898;28;20053;-59
2022/09/28 06:40:56;;;;;;;15.48;8.60;;;;;;;25.52;45.31;94021.38;4977732;28;20062;-60
2022/09/28 06:43:21;;;;;;;12.30;9.43;;;;;;;25.25;44.76;93942.31;4980374;28;20423;-60
2022/09/28 06:45:51;;;;;;;17.42;9.82;;;;;;;25.75;44.50;93999.53;4966947;28;20026;-60
2022/09/28 06:48:16;;;;;;;14.05;10.43;;;;;;;24.69;46.01;93969.16;4962488;28;20038;-63
2022/09/28 06:50:42;;;;;;;15.18;9.02;;;;;;;24.71;46.68;94037.59;4977752;28;20077;-59
2022/09/28 06:53:09;;;;;;;12.43;9.25;;;;;;;25.52;45.33;94037.06;4980404;28;20047;-62
2022/09/28 06:55:38;;;;;;;14.88;9.95;;;;;;;24.55;45.96;93954.22;4980224;28;20047;-58
2022/09/28 06:58:05;;;;;;;13.27;9.18;;;;;;;24.69;46.63;94034.69;4977884;28;20034;-59
2022/09/28 07:00:32;;;;;;;12.80;9.50;;;;;;;24.50;47.59;94034.28;4958432;28;20034;-57
2022/09/28 07:02:59;;;;;;;13.25;10.55;;;;;;;24.80;45.77;93968.81;4974250;28;20093;-58
2022/09/28 07:05:27;;;;;;;19.92;10.57;;;;;;;24.57;46.17;93984.41;4989948;28;20135;-59
2022/09/28 07:07:54;;;;;;;13.35;9.65;;;;;;;23.58;47.52;93928.47;4976756;28;20034;-60
2022/09/28 07:10:23;;;;;;;15.15;10.13;;;;;;;24.78;46.88;94047.81;4980223;28;20039;-59
2022/09/28 07:12:50;;;;;;;16.10;10.00;;;;;;;24.53;46.78;94011.34;4977829;28;20030;-60
2022/09/28 07:15:15;;;;;;;16.30;10.10;;;;;;;24.75;46.78;94038.00;4974034;28;20035;-63
2022/09/28 07:17:41;;;;;;;13.55;9.05;;;;;;;24.61;46.94;94042.84;4967422;28;20043;-59
2022/09/28 07:20:07;;;;;;;13.48;8.93;;;;;;;24.23;48.04;94043.94;4977053;28;20046;-63
2022/09/28 07:22:32;;;;;;;15.38;10.07;;;;;;;24.42;47.59;93995.28;4979581;28;20430;-62
2022/09/28 07:24:58;;;;;;;13.80;9.30;;;;;;;24.65;47.01;94039.75;4982459;28;20440;-65
2022/09/28 07:27:23;;;;;;;13.82;8.75;;;;;;;24.39;47.47;94045.47;4988481;28;20695;-57
2022/09/28 07:29:50;;;;;;;10.73;8.48;;;;;;;24.21;48.00;94046.44;4979242;28;20498;-62
2022/09/28 07:32:15;;;;;;;15.25;9.50;;;;;;;23.97;48.24;94000.50;4970704;28;20039;-60
2022/09/28 07:34:43;;;;;;;12.90;9.43;;;;;;;24.11;47.81;93993.69;4979868;28;20042;-64
2022/09/28 07:37:10;;;;;;;12.55;9.40;;;;;;;23.73;48.31;93983.81;4963390;28;20047;-58
2022/09/28 07:41:10;;;;;;;13.82;10.00;;;;;;;24.25;48.41;94046.84;4977971;28;20039;-62
2022/09/28 07:42:22;;;;;;;12.60;8.93;;;;;;;24.40;48.26;94060.59;4981770;28;20103;-61
2022/09/28 07:44:48;;;;;;;11.45;9.23;;;;;;;24.16;48.34;94050.06;4967724;28;20129;-65
2022/09/28 07:47:13;;;;;;;10.32;8.15;;;;;;;23.29;49.79;93997.09;4982924;28;20137;-58
2022/09/28 07:49:39;;;;;;;11.98;9.15;;;;;;;23.80;48.44;93985.16;4980060;28;20047;-61
2022/09/28 07:52:04;;;;;;;11.90;8.32;;;;;;;24.04;47.84;94010.00;4980275;28;20549;-64
2022/09/28 07:54:30;;;;;;;11.45;9.00;;;;;;;24.23;48.15;94033.03;4981476;28;20053;-61
2022/09/28 07:56:56;;;;;;;11.77;9.32;;;;;;;23.66;48.23;93981.78;4982573;28;20040;-65
2022/09/28 07:59:21;;;;;;;10.85;8.77;;;;;;;23.78;48.10;94009.47;4985813;28;20264;-63
2022/09/28 08:01:49;;;;;;;12.32;9.07;;;;;;;23.94;48.49;94050.66;4985348;28;20046;-61
2022/09/28 08:04:16;;;;;;;11.57;8.73;;;;;;;23.93;48.89;94053.91;4981442;28;20129;-62
2022/09/28 08:06:43;;;;;;;12.93;8.07;;;;;;;23.78;48.63;94004.03;4966970;28;20033;-64
2022/09/28 08:09:08;;;;;;;11.85;8.18;;;;;;;24.09;48.28;94056.22;4986117;28;20034;-63
2022/09/28 08:11:33;;;;;;;10.18;8.20;;;;;;;23.95;48.79;94052.13;4983474;28;20128;-63
2022/09/28 08:13:59;;;;;;;9.50;7.70;;;;;;;23.62;49.38;94029.69;4979111;28;20049;-63
2022/09/28 08:16:26;;;;;;;9.00;7.45;;;;;;;23.63;48.74;94014.78;4981962;28;20046;-66
2022/09/28 08:18:51;;;;;;;10.07;7.50;;;;;;;23.69;48.87;94031.75;4968453;28;20026;-59
2022/09/28 08:24:01;;;;;;;8.18;6.88;;;;;;;23.71;48.90;94056.50;4997095;28;20134;-59
2022/09/28 08:26:28;;;;;;;11.32;7.20;;;;;;;23.39;48.98;93996.06;4987267;28;20046;-63
2022/09/28 08:28:53;;;;;;;8.13;6.45;;;;;;;23.74;48.73;94055.44;4981498;28;21060;-64
2022/09/28 08:31:18;;;;;;;8.80;6.43;;;;;;;23.56;48.54;94018.22;4975871;28;20506;-64
2022/09/28 08:33:44;;;;;;;7.75;5.88;;;;;;;23.61;49.20;94028.22;4973070;28;20356;-66
2022/09/28 08:36:09;;;;;;;9.88;6.50;;;;;;;23.78;49.04;94064.00;4973390;28;20035;-59
2022/09/28 08:38:35;;;;;;;11.80;6.80;;;;;;;23.32;49.62;94017.81;4968309;28;20041;-62
2022/09/28 08:41:10;;;;;;;9.68;5.63;;;;;;;23.73;49.08;94062.16;4977213;28;20635;-62
2022/09/28 08:44:02;;;;;;;9.82;6.35;;;;;;;23.74;49.58;94052.72;4980033;28;20045;-63
2022/09/28 08:46:36;;;;;;;7.90;5.53;;;;;;;23.58;49.78;94051.09;4965115;28;20065;-64
2022/09/28 08:49:07;;;;;;;8.25;5.25;;;;;;;23.55;49.96;94041.25;4967084;28;20037;-57
2022/09/28 08:51:49;;;;;;;8.88;5.03;;;;;;;23.53;50.07;94043.81;4978041;28;20029;-63
2022/09/28 08:54:26;;;;;;;7.63;4.88;;;;;;;23.68;48.93;94049.41;4967316;28;20046;-61
2022/09/28 08:56:54;;;;;;;10.57;4.95;;;;;;;23.14;49.57;94024.94;4978223;28;20042;-66
2022/09/28 08:59:22;;;;;;;6.97;4.53;;;;;;;23.44;48.93;94030.66;4950114;28;20049;-63
2022/09/28 09:01:54;;;;;;;8.10;3.80;;;;;;;23.56;48.46;94031.84;4967248;28;20470;-69
2022/09/28 09:04:19;;;;;;;7.60;4.18;;;;;;;23.50;48.71;94007.44;4972331;28;20046;-66
2022/09/28 09:06:48;;;;;;;5.78;3.60;;;;;;;23.88;49.13;94036.47;4963935;28;20410;-57
2022/09/28 09:09:51;;;;;;;7.78;3.70;;;;;;;23.98;48.49;94051.06;4982569;28;20062;-63
2022/09/28 09:12:26;;;;;;;8.60;3.95;;;;;;;23.78;49.02;93988.41;4976678;28;20846;-67
2022/09/28 09:14:59;;;;;;;5.63;4.13;;;;;;;23.70;48.42;93970.53;4981112;28;20030;-64
2022/09/28 09:17:28;;;;;;;7.07;4.10;;;;;;;24.31;48.16;94033.06;4966458;28;20039;-61
2022/09/28 09:19:58;;;;;;;8.20;3.58;;;;;;;23.80;47.88;93941.53;4982059;28;20145;-65
2022/09/28 09:22:38;;;;;;;9.25;3.42;;;;;;;23.96;47.18;93955.41;4949516;28;20038;-63
2022/09/28 09:25:13;;;;;;;;;;;;;;;24.81;46.52;94024.91;4948564;28;20034;-64
2022/09/28 09:27:48;;;;;;;9.07;4.07;;;;;;;24.74;47.33;94025.59;4982669;28;19918;-61
2022/09/28 09:30:18;;;;;;;8.00;3.85;;;;;;;25.00;46.18;94015.88;4978330;28;20795;-67
2022/09/28 09:32:49;;;;;;;;;;;;;;;24.50;46.93;93979.69;4981054;28;20157;-65
2022/09/28 09:35:49;;;;;;;6.50;3.17;;;;;;;25.05;46.38;94023.19;4981589;28;19949;-62
2022/09/28 09:38:27;;;;;;;8.05;3.92;;;;;;;24.78;46.44;93982.28;4981733;28;20100;-63
2022/09/28 09:41:02;;;;;;;7.78;3.50;;;;;;;24.99;46.38;94019.13;4972118;28;20104;-66
2022/09/28 09:43:40;;;;;;;6.70;3.20;;;;;;;24.18;47.41;94014.78;4997543;28;20184;-68
2022/09/28 09:46:45;;;;;;;12.80;3.85;;;;;;;25.42;45.13;94017.00;4967598;28;20035;-59
2022/09/28 09:49:20;;;;;;;9.65;3.30;;;;;;;25.22;45.43;94020.66;4899131;29;20039;-65
2022/09/28 09:51:54;;;;;;;8.80;3.60;;;;;;;24.98;45.17;93974.69;4904344;29;20044;-66
2022/09/28 09:54:29;;;;;;;6.45;2.95;;;;;;;24.93;45.61;93972.88;4925988;28;20046;-58
2022/09/28 09:57:16;;;;;;;7.38;3.35;;;;;;;25.75;44.53;94024.16;4958077;28;20503;-66
2022/09/28 09:59:43;;;;;;;7.88;3.25;;;;;;;25.52;43.77;93966.00;4971147;28;20046;-62
2022/09/28 10:02:21;;;;;;;6.88;3.15;;;;;;;25.17;44.19;93941.56;4973148;28;20034;-59
2022/09/28 10:04:46;;;;;;;5.25;2.83;;;;;;;25.11;45.04;93971.81;4984857;28;20034;-63
2022/09/28 10:07:21;;;;;;;5.63;2.70;;;;;;;24.91;44.43;93939.88;4983682;28;20069;-68
2022/09/28 10:09:46;;;;;;;4.70;2.40;;;;;;;25.48;42.94;93938.28;4967289;28;20026;-64
2022/09/28 10:12:18;;;;;;;9.77;3.00;;;;;;;26.25;42.70;94019.13;4965494;28;20128;-62
2022/09/28 10:14:44;;;;;;;8.00;3.35;;;;;;;25.94;42.53;93973.97;4980640;28;20064;-67
2022/09/28 10:17:10;;;;;;;5.60;2.80;;;;;;;25.69;42.48;93914.22;4992945;28;20117;-69
2022/09/28 10:19:35;;;;;;;5.70;3.33;;;;;;;25.60;43.78;93983.81;4948209;28;20106;-61
2022/09/28 10:22:03;;;;;;;7.10;3.30;;;;;;;25.77;43.01;93947.72;4982551;28;20425;-70
2022/09/28 10:24:50;;;;;;;6.53;2.55;;;;;;;25.87;43.22;93999.34;4985296;28;20049;-66
2022/09/28 10:27:34;;;;;;;8.25;2.55;;;;;;;25.51;43.49;93920.78;4982676;28;20498;-68
2022/09/28 10:30:09;;;;;;;6.40;2.53;;;;;;;25.97;43.69;93978.31;4981656;28;20061;-65
2022/09/28 10:32:44;;;;;;;8.20;3.30;;;;;;;25.56;43.44;93928.06;4988585;28;20038;-66
2022/09/28 10:35:30;;;;;;;6.18;2.70;;;;;;;25.52;43.35;93906.56;4964738;28;20047;-66
2022/09/28 10:38:02;;;;;;;8.23;3.05;;;;;;;25.48;44.53;93971.09;4975631;28;20046;-59
2022/09/28 10:40:49;;;;;;;5.32;2.70;;;;;;;25.55;44.35;93975.81;4967835;28;20042;-63
2022/09/28 10:43:28;;;;;;;5.18;3.15;;;;;;;25.49;44.37;93967.09;4969491;28;20042;-65
2022/09/28 10:46:03;;;;;;;4.33;2.80;;;;;;;24.66;45.02;93893.81;4969339;28;20107;-66
2022/09/28 10:48:30;;;;;;;6.78;3.13;;;;;;;25.06;45.02;93953.59;4963489;28;20014;-58
2022/09/28 10:51:06;;;;;;;5.38;2.42;;;;;;;25.33;45.18;93960.16;4961496;28;20053;-62
2022/09/28 10:53:31;;;;;;;4.85;2.50;;;;;;;25.39;44.92;93957.97;4962613;28;20042;-59
2022/09/28 10:56:02;;;;;;;5.55;2.30;;;;;;;25.45;44.69;93972.19;4970022;28;20038;-61
2022/09/28 10:58:40;;;;;;;4.65;2.47;;;;;;;24.85;44.94;93901.09;4996764;28;20821;-56
2022/09/28 11:01:21;;;;;;;5.60;2.50;;;;;;;25.31;44.87;93946.31;4978826;28;20018;-70
2022/09/28 11:03:58;;;;;;;5.72;2.80;;;;;;;25.19;44.60;93917.19;4983027;28;20490;-61
2022/09/28 11:06:28;;;;;;;5.05;2.90;;;;;;;25.31;44.62;93935.38;4961674;28;20563;-57
2022/09/28 11:09:06;;;;;;;5.82;2.67;;;;;;;24.94;45.16;93911.47;4963939;28;20523;-72
2022/09/28 11:11:39;;;;;;;3.25;2.50;;;;;;;25.15;44.85;93947.59;4974845;28;20047;-63
2022/09/28 11:14:04;;;;;;;4.10;2.50;;;;;;;25.16;44.78;93946.31;4953839;28;20524;-69
2022/09/28 11:16:31;;;;;;;4.88;2.67;;;;;;;25.05;45.02;93924.84;4949369;28;20046;-60
2022/09/28 11:19:02;;;;;;;4.35;2.45;;;;;;;24.97;45.04;93924.06;4981644;28;20026;-61
2022/09/28 11:21:30;;;;;;;3.78;2.28;;;;;;;24.99;45.34;93924.28;4981546;28;20090;-68
2022/09/28 11:23:57;;;;;;;4.53;2.42;;;;;;;25.12;44.74;93940.47;4982671;28;20097;-67
2022/09/28 11:26:22;;;;;;;3.42;2.10;;;;;;;24.89;44.63;93901.47;4981817;28;20537;-68
2022/09/28 11:28:51;;;;;;;4.35;2.40;;;;;;;25.20;44.47;93913.91;4956230;28;20038;-69
2022/09/28 11:31:17;;;;;;;3.63;2.25;;;;;;;25.13;44.85;93917.34;4978152;28;20530;-61
2022/09/28 11:33:45;;;;;;;5.57;2.30;;;;;;;24.68;45.27;93866.69;4966372;28;20042;-64
2022/09/28 11:36:15;;;;;;;3.67;2.10;;;;;;;25.01;45.10;93891.69;4981704;28;20056;-60
2022/09/28 11:39:19;;;;;;;4.10;2.10;;;;;;;25.12;45.53;93902.22;4974127;28;20275;-64
2022/09/28 11:41:51;;;;;;;4.50;2.28;;;;;;;25.16;45.00;93908.06;4982226;28;20050;-59
2022/09/28 11:44:38;;;;;;;6.13;2.58;;;;;;;25.17;44.89;93909.53;4964356;28;20073;-64
2022/09/28 11:47:26;;;;;;;4.20;1.90;;;;;;;25.23;44.64;93918.28;4990114;28;20033;-65